sensor_id;sensor_type;location;lat;lon;timestamp;pressure;altitude;pressure_sealevel;temperature;humidity
78643;BME280;67954;47.618;17.606;2023-04-01T00:00:22;98997.59;;;9.39;87.22
78643;BME280;67954;47.618;17.606;2023-04-01T00:00:54;98997.31;;;9.34;87.82
78643;BME280;67954;47.618;17.606;2023-04-01T00:01:26;98995.59;;;9.41;87.44
78643;BME280;67954;47.618;17.606;2023-04-01T00:01:57;98998.94;;;9.43;87.78
78643;BME280;67954;47.618;17.606;2023-04-01T00:02:28;99001.94;;;9.48;87.29
78643;BME280;67954;47.618;17.606;2023-04-01T00:02:59;98991.75;;;9.44;87.46
78643;BME280;67954;47.618;17.606;2023-04-01T00:03:31;98995.25;;;9.36;87.81
78643;BME280;67954;47.618;17.606;2023-04-01T00:04:03;99005.16;;;9.44;87.74
78643;BME280;67954;47.618;17.606;2023-04-01T00:04:35;99000.78;;;9.43;87.75
78643;BME280;67954;47.618;17.606;2023-04-01T00:05:07;98994.63;;;9.34;87.44
78643;BME280;67954;47.618;17.606;2023-04-01T00:05:40;98999.97;;;9.34;87.98
78643;BME280;67954;47.618;17.606;2023-04-01T00:06:15;98999.81;;;9.27;87.38
78643;BME280;67954;47.618;17.606;2023-04-01T00:06:46;99000.81;;;9.26;87.55
78643;BME280;67954;47.618;17.606;2023-04-01T00:07:19;98995.94;;;9.22;87.58
78643;BME280;67954;47.618;17.606;2023-04-01T00:07:50;98989.41;;;9.24;87.64
78643;BME280;67954;47.618;17.606;2023-04-01T00:08:22;98995.63;;;9.25;87.72
78643;BME280;67954;47.618;17.606;2023-04-01T00:08:54;98991.75;;;9.36;87.76
78643;BME280;67954;47.618;17.606;2023-04-01T00:09:26;98993.09;;;9.40;87.95
78643;BME280;67954;47.618;17.606;2023-04-01T00:09:59;98999.78;;;9.44;87.20
78643;BME280;67954;47.618;17.606;2023-04-01T00:10:29;98995.09;;;9.38;87.45
78643;BME280;67954;47.618;17.606;2023-04-01T00:11:01;98988.41;;;9.34;87.20
78643;BME280;67954;47.618;17.606;2023-04-01T00:11:32;98990.75;;;9.37;87.40
78643;BME280;67954;47.618;17.606;2023-04-01T00:12:04;98991.94;;;9.34;87.40
78643;BME280;67954;47.618;17.606;2023-04-01T00:12:35;98988.22;;;9.35;87.32
78643;BME280;67954;47.618;17.606;2023-04-01T00:13:07;98993.91;;;9.40;87.71
78643;BME280;67954;47.618;17.606;2023-04-01T00:13:37;98994.25;;;9.45;87.76
78643;BME280;67954;47.618;17.606;2023-04-01T00:14:09;98988.22;;;9.43;87.50
78643;BME280;67954;47.618;17.606;2023-04-01T00:14:41;98986.38;;;9.44;87.71
78643;BME280;67954;47.618;17.606;2023-04-01T00:15:12;98993.09;;;9.40;87.26
78643;BME280;67954;47.618;17.606;2023-04-01T00:15:44;98994.25;;;9.45;87.47
78643;BME280;67954;47.618;17.606;2023-04-01T00:16:16;98995.94;;;9.46;87.34
78643;BME280;67954;47.618;17.606;2023-04-01T00:16:47;98989.06;;;9.44;87.26
78643;BME280;67954;47.618;17.606;2023-04-01T00:17:18;98990.25;;;9.41;87.04
78643;BME280;67954;47.618;17.606;2023-04-01T00:17:49;98997.31;;;9.34;87.36
78643;BME280;67954;47.618;17.606;2023-04-01T00:18:20;98994.63;;;9.34;87.63
78643;BME280;67954;47.618;17.606;2023-04-01T00:18:51;98990.44;;;9.31;87.74
78643;BME280;67954;47.618;17.606;2023-04-01T00:19:23;98984.22;;;9.31;87.62
78643;BME280;67954;47.618;17.606;2023-04-01T00:19:55;98978.53;;;9.26;87.46
78643;BME280;67954;47.618;17.606;2023-04-01T00:20:26;98988.41;;;9.25;87.47
78643;BME280;67954;47.618;17.606;2023-04-01T00:20:58;98982.88;;;9.27;87.62
78643;BME280;67954;47.618;17.606;2023-04-01T00:22:41;98985.91;;;9.24;87.65
78643;BME280;67954;47.618;17.606;2023-04-01T00:23:12;98980.19;;;9.35;87.31
78643;BME280;67954;47.618;17.606;2023-04-01T00:23:43;98986.28;;;9.21;87.78
78643;BME280;67954;47.618;17.606;2023-04-01T00:24:15;98975.84;;;9.26;87.57
78643;BME280;67954;47.618;17.606;2023-04-01T00:24:48;98979.22;;;9.28;87.77
78643;BME280;67954;47.618;17.606;2023-04-01T00:25:19;98992.78;;;9.18;87.84
78643;BME280;67954;47.618;17.606;2023-04-01T00:25:51;98982.56;;;9.14;87.92
78643;BME280;67954;47.618;17.606;2023-04-01T00:26:22;98984.94;;;9.17;87.93
78643;BME280;67954;47.618;17.606;2023-04-01T00:26:53;98979.41;;;9.18;87.72
78643;BME280;67954;47.618;17.606;2023-04-01T00:27:24;98993.28;;;9.22;87.48
78643;BME280;67954;47.618;17.606;2023-04-01T00:27:56;98984.75;;;9.18;87.81
78643;BME280;67954;47.618;17.606;2023-04-01T00:28:27;98988.59;;;9.16;88.33
78643;BME280;67954;47.618;17.606;2023-04-01T00:28:59;98988.44;;;9.17;88.19
78643;BME280;67954;47.618;17.606;2023-04-01T00:29:30;98987.78;;;9.15;88.13
78643;BME280;67954;47.618;17.606;2023-04-01T00:30:02;98989.63;;;9.15;88.08
78643;BME280;67954;47.618;17.606;2023-04-01T00:30:33;98979.56;;;9.17;87.73
78643;BME280;67954;47.618;17.606;2023-04-01T00:31:05;98983.25;;;9.16;87.84
78643;BME280;67954;47.618;17.606;2023-04-01T00:31:37;98987.44;;;9.10;87.97
78643;BME280;67954;47.618;17.606;2023-04-01T00:32:08;98981.44;;;9.08;88.02
78643;BME280;67954;47.618;17.606;2023-04-01T00:32:39;98984.75;;;9.10;88.20
78643;BME280;67954;47.618;17.606;2023-04-01T00:33:11;98985.13;;;9.07;87.96
78643;BME280;67954;47.618;17.606;2023-04-01T00:33:41;98984.59;;;9.12;88.18
78643;BME280;67954;47.618;17.606;2023-04-01T00:34:13;98988.78;;;9.06;88.30
78643;BME280;67954;47.618;17.606;2023-04-01T00:34:44;98988.13;;;9.04;88.17
78643;BME280;67954;47.618;17.606;2023-04-01T00:35:16;98986.59;;;9.10;88.60
78643;BME280;67954;47.618;17.606;2023-04-01T00:35:47;98982.91;;;9.11;88.57
78643;BME280;67954;47.618;17.606;2023-04-01T00:36:21;98987.78;;;9.07;88.50
78643;BME280;67954;47.618;17.606;2023-04-01T00:36:53;98984.59;;;9.12;88.48
78643;BME280;67954;47.618;17.606;2023-04-01T00:37:24;98979.91;;;9.06;88.36
78643;BME280;67954;47.618;17.606;2023-04-01T00:37:55;98988.44;;;9.09;88.33
78643;BME280;67954;47.618;17.606;2023-04-01T00:38:27;98978.91;;;9.07;88.33
78643;BME280;67954;47.618;17.606;2023-04-01T00:38:58;98990.47;;;8.99;88.45
78643;BME280;67954;47.618;17.606;2023-04-01T00:39:29;98986.25;;;8.96;88.97
78643;BME280;67954;47.618;17.606;2023-04-01T00:40:04;98990.47;;;8.99;88.90
78643;BME280;67954;47.618;17.606;2023-04-01T00:40:37;98985.25;;;8.98;88.99
78643;BME280;67954;47.618;17.606;2023-04-01T00:41:10;98986.94;;;8.99;89.02
78643;BME280;67954;47.618;17.606;2023-04-01T00:41:44;98992.13;;;9.00;89.00
78643;BME280;67954;47.618;17.606;2023-04-01T00:42:15;98995.13;;;8.97;88.61
78643;BME280;67954;47.618;17.606;2023-04-01T00:42:46;98995.81;;;8.99;88.56
78643;BME280;67954;47.618;17.606;2023-04-01T00:43:19;98999.84;;;9.03;88.98
78643;BME280;67954;47.618;17.606;2023-04-01T00:43:51;98995.13;;;8.97;88.71
78643;BME280;67954;47.618;17.606;2023-04-01T00:44:24;98992.47;;;8.97;89.04
78643;BME280;67954;47.618;17.606;2023-04-01T00:44:56;98990.47;;;8.91;88.98
78643;BME280;67954;47.618;17.606;2023-04-01T00:45:33;98992.97;;;8.92;89.13
78643;BME280;67954;47.618;17.606;2023-04-01T00:46:05;98987.09;;;8.97;88.76
78643;BME280;67954;47.618;17.606;2023-04-01T00:46:35;98987.78;;;8.99;89.15
78643;BME280;67954;47.618;17.606;2023-04-01T00:47:07;98992.47;;;9.05;88.72
78643;BME280;67954;47.618;17.606;2023-04-01T00:47:39;98988.63;;;8.91;89.18
78643;BME280;67954;47.618;17.606;2023-04-01T00:48:12;98985.28;;;8.89;89.35
78643;BME280;67954;47.618;17.606;2023-04-01T00:48:48;98995.13;;;8.97;89.15
78643;BME280;67954;47.618;17.606;2023-04-01T00:49:23;98987.97;;;8.89;89.24
78643;BME280;67954;47.618;17.606;2023-04-01T00:49:55;98985.78;;;8.85;89.56
78643;BME280;67954;47.618;17.606;2023-04-01T00:50:27;98982.94;;;8.94;89.42
78643;BME280;67954;47.618;17.606;2023-04-01T00:51:02;98986.94;;;8.90;88.73
78643;BME280;67954;47.618;17.606;2023-04-01T00:51:37;98989.28;;;8.85;89.60
78643;BME280;67954;47.618;17.606;2023-04-01T00:52:13;98980.75;;;8.90;89.63
78643;BME280;67954;47.618;17.606;2023-04-01T00:52:45;98990.16;;;8.94;89.03
78643;BME280;67954;47.618;17.606;2023-04-01T00:53:19;98991.47;;;8.90;89.48
78643;BME280;67954;47.618;17.606;2023-04-01T00:53:53;98998.84;;;8.88;89.42
78643;BME280;67954;47.618;17.606;2023-04-01T00:54:27;98989.97;;;8.87;89.43
78643;BME280;67954;47.618;17.606;2023-04-01T00:55:03;98988.78;;;8.90;88.91
78643;BME280;67954;47.618;17.606;2023-04-01T00:55:39;98991.97;;;8.93;89.07
78643;BME280;67954;47.618;17.606;2023-04-01T00:56:14;98990.13;;;8.86;89.51
78643;BME280;67954;47.618;17.606;2023-04-01T00:56:49;98983.75;;;8.87;89.39
78643;BME280;67954;47.618;17.606;2023-04-01T00:57:27;98991.16;;;8.93;89.14
78643;BME280;67954;47.618;17.606;2023-04-01T00:58:00;98992.97;;;8.92;89.07
78643;BME280;67954;47.618;17.606;2023-04-01T00:58:35;98986.25;;;8.96;88.75
78643;BME280;67954;47.618;17.606;2023-04-01T00:59:13;98983.59;;;8.96;89.41
78643;BME280;67954;47.618;17.606;2023-04-01T00:59:46;98989.97;;;8.95;89.40
78643;BME280;67954;47.618;17.606;2023-04-01T01:00:37;98988.63;;;8.91;89.25
78643;BME280;67954;47.618;17.606;2023-04-01T01:01:11;98979.41;;;8.86;89.61
78643;BME280;67954;47.618;17.606;2023-04-01T01:01:42;98987.28;;;8.87;89.14
78643;BME280;67954;47.618;17.606;2023-04-01T01:02:13;98992.47;;;8.89;89.37
78643;BME280;67954;47.618;17.606;2023-04-01T01:02:47;98981.28;;;8.93;88.90
78643;BME280;67954;47.618;17.606;2023-04-01T01:03:21;98978.91;;;8.90;89.01
78643;BME280;67954;47.618;17.606;2023-04-01T01:03:52;98991.66;;;8.80;89.81
78643;BME280;67954;47.618;17.606;2023-04-01T01:04:26;98987.28;;;8.79;89.61
78643;BME280;67954;47.618;17.606;2023-04-01T01:04:57;98983.44;;;8.82;89.92
78643;BME280;67954;47.618;17.606;2023-04-01T01:05:38;98980.78;;;8.82;89.71
78643;BME280;67954;47.618;17.606;2023-04-01T01:06:23;98979.59;;;8.76;89.37
78643;BME280;67954;47.618;17.606;2023-04-01T01:08:33;98986.63;;;8.93;89.08
78643;BME280;67954;47.618;17.606;2023-04-01T01:09:28;98979.56;;;8.84;89.55
78643;BME280;67954;47.618;17.606;2023-04-01T01:10:09;98976.25;;;8.90;89.14
78643;BME280;67954;47.618;17.606;2023-04-01T01:10:49;98972.38;;;8.85;89.43
78643;BME280;67954;47.618;17.606;2023-04-01T01:11:35;98981.94;;;8.87;89.31
78643;BME280;67954;47.618;17.606;2023-04-01T01:12:13;98983.44;;;8.90;89.13
78643;BME280;67954;47.618;17.606;2023-04-01T01:12:47;98974.38;;;8.83;88.86
78643;BME280;67954;47.618;17.606;2023-04-01T01:13:27;98983.78;;;8.79;89.58
78643;BME280;67954;47.618;17.606;2023-04-01T01:14:09;98975.59;;;8.80;89.95
78643;BME280;67954;47.618;17.606;2023-04-01T01:14:53;98971.22;;;8.79;89.73
78643;BME280;67954;47.618;17.606;2023-04-01T01:15:32;98974.41;;;8.75;89.55
78643;BME280;67954;47.618;17.606;2023-04-01T01:16:12;98975.41;;;8.74;89.27
78643;BME280;67954;47.618;17.606;2023-04-01T01:16:53;98971.22;;;8.71;90.14
78643;BME280;67954;47.618;17.606;2023-04-01T01:17:36;98979.41;;;8.86;89.49
78643;BME280;67954;47.618;17.606;2023-04-01T01:18:19;98976.56;;;8.87;88.88
78643;BME280;67954;47.618;17.606;2023-04-01T01:19:01;98976.72;;;8.86;88.89
78643;BME280;67954;47.618;17.606;2023-04-01T01:19:52;98969.88;;;8.83;89.41
78643;BME280;67954;47.618;17.606;2023-04-01T01:20:55;98972.88;;;8.88;88.83
78643;BME280;67954;47.618;17.606;2023-04-01T01:21:45;98978.25;;;8.72;89.46
78643;BME280;67954;47.618;17.606;2023-04-01T01:23:57;98966.88;;;8.78;89.29
78643;BME280;67954;47.618;17.606;2023-04-01T01:24:45;98965.53;;;8.82;89.49
78643;BME280;67954;47.618;17.606;2023-04-01T01:25:36;98961.69;;;8.93;88.47
78643;BME280;67954;47.618;17.606;2023-04-01T01:26:40;98961.00;;;8.83;88.50
78643;BME280;67954;47.618;17.606;2023-04-01T01:27:17;98965.53;;;8.90;88.87
78643;BME280;67954;47.618;17.606;2023-04-01T01:27:56;98955.97;;;8.88;89.04
78643;BME280;67954;47.618;17.606;2023-04-01T01:28:42;98952.81;;;8.92;88.62
78643;BME280;67954;47.618;17.606;2023-04-01T01:29:40;98954.31;;;8.87;88.97
78643;BME280;67954;47.618;17.606;2023-04-01T01:30:21;98963.19;;;8.79;88.80
78643;BME280;67954;47.618;17.606;2023-04-01T01:31:02;98962.53;;;8.77;89.26
78643;BME280;67954;47.618;17.606;2023-04-01T01:31:44;98959.50;;;8.80;89.24
78643;BME280;67954;47.618;17.606;2023-04-01T01:32:34;98957.00;;;8.79;88.78
78643;BME280;67954;47.618;17.606;2023-04-01T01:33:39;98954.16;;;8.80;88.94
78643;BME280;67954;47.618;17.606;2023-04-01T01:34:21;98957.16;;;8.85;88.52
78643;BME280;67954;47.618;17.606;2023-04-01T01:35:06;98965.53;;;8.90;88.51
78643;BME280;67954;47.618;17.606;2023-04-01T01:35:40;98965.88;;;8.79;89.03
78643;BME280;67954;47.618;17.606;2023-04-01T01:36:16;98959.84;;;8.77;88.61
78643;BME280;67954;47.618;17.606;2023-04-01T01:37:11;98953.47;;;8.62;89.73
78643;BME280;67954;47.618;17.606;2023-04-01T01:37:45;98954.97;;;8.48;89.90
78643;BME280;67954;47.618;17.606;2023-04-01T01:38:19;98955.81;;;8.57;89.90
78643;BME280;67954;47.618;17.606;2023-04-01T01:38:54;98963.84;;;8.57;90.10
78643;BME280;67954;47.618;17.606;2023-04-01T01:39:30;98966.19;;;8.60;90.01
78643;BME280;67954;47.618;17.606;2023-04-01T01:40:05;98969.88;;;8.67;90.02
78643;BME280;67954;47.618;17.606;2023-04-01T01:41:48;98964.03;;;8.80;88.90
78643;BME280;67954;47.618;17.606;2023-04-01T01:42:24;98968.03;;;8.76;89.38
78643;BME280;67954;47.618;17.606;2023-04-01T01:43:00;98965.50;;;8.58;90.09
78643;BME280;67954;47.618;17.606;2023-04-01T01:43:38;98967.03;;;8.52;89.85
78643;BME280;67954;47.618;17.606;2023-04-01T01:44:13;98970.03;;;8.57;90.47
78643;BME280;67954;47.618;17.606;2023-04-01T01:44:50;98966.34;;;8.42;90.53
78643;BME280;67954;47.618;17.606;2023-04-01T01:45:25;98969.88;;;8.51;90.61
78643;BME280;67954;47.618;17.606;2023-04-01T01:46:01;98976.91;;;8.60;90.31
78643;BME280;67954;47.618;17.606;2023-04-01T01:46:38;98968.53;;;8.63;90.13
78643;BME280;67954;47.618;17.606;2023-04-01T01:47:10;98969.72;;;8.52;90.28
78643;BME280;67954;47.618;17.606;2023-04-01T01:47:42;98965.53;;;8.50;90.50
78643;BME280;67954;47.618;17.606;2023-04-01T01:48:17;98964.84;;;8.48;90.30
78643;BME280;67954;47.618;17.606;2023-04-01T01:48:49;98962.50;;;8.53;90.21
78643;BME280;67954;47.618;17.606;2023-04-01T01:49:22;98965.84;;;8.47;90.54
78643;BME280;67954;47.618;17.606;2023-04-01T01:49:55;98959.50;;;8.48;90.01
78643;BME280;67954;47.618;17.606;2023-04-01T01:50:29;98967.00;;;8.44;90.41
78643;BME280;67954;47.618;17.606;2023-04-01T01:51:01;98958.66;;;8.39;90.77
78643;BME280;67954;47.618;17.606;2023-04-01T01:51:33;98961.00;;;8.42;90.23
78643;BME280;67954;47.618;17.606;2023-04-01T01:52:04;98962.81;;;8.34;90.46
78643;BME280;67954;47.618;17.606;2023-04-01T01:52:35;98954.44;;;8.29;91.10
78643;BME280;67954;47.618;17.606;2023-04-01T01:53:09;98955.59;;;8.26;91.28
78643;BME280;67954;47.618;17.606;2023-04-01T01:53:41;98962.63;;;8.27;91.57
78643;BME280;67954;47.618;17.606;2023-04-01T01:54:12;98957.25;;;8.27;91.48
78643;BME280;67954;47.618;17.606;2023-04-01T01:54:47;98955.75;;;8.24;91.24
78643;BME280;67954;47.618;17.606;2023-04-01T01:55:26;98955.41;;;8.19;91.55
78643;BME280;67954;47.618;17.606;2023-04-01T01:55:57;98950.41;;;8.16;91.64
78643;BME280;67954;47.618;17.606;2023-04-01T01:56:30;98948.03;;;8.21;92.00
78643;BME280;67954;47.618;17.606;2023-04-01T01:57:06;98952.03;;;8.09;92.22
78643;BME280;67954;47.618;17.606;2023-04-01T01:57:39;98941.16;;;8.03;92.64
78643;BME280;67954;47.618;17.606;2023-04-01T01:58:14;98948.53;;;8.09;92.49
78643;BME280;67954;47.618;17.606;2023-04-01T01:58:49;98948.38;;;8.10;92.86
78643;BME280;67954;47.618;17.606;2023-04-01T01:59:25;98950.56;;;8.15;92.28
78643;BME280;67954;47.618;17.606;2023-04-01T02:00:04;98949.72;;;8.22;91.74
78643;BME280;67954;47.618;17.606;2023-04-01T02:00:41;98950.56;;;8.31;91.97
78643;BME280;67954;47.618;17.606;2023-04-01T02:01:17;98956.81;;;8.40;91.22
78643;BME280;67954;47.618;17.606;2023-04-01T02:01:55;98951.47;;;8.48;90.73
78643;BME280;67954;47.618;17.606;2023-04-01T02:02:27;98957.00;;;8.54;90.49
78643;BME280;67954;47.618;17.606;2023-04-01T02:03:01;98950.28;;;8.58;90.56
78643;BME280;67954;47.618;17.606;2023-04-01T02:03:36;98947.63;;;8.50;90.72
78643;BME280;67954;47.618;17.606;2023-04-01T02:04:10;98950.47;;;8.49;90.90
78643;BME280;67954;47.618;17.606;2023-04-01T02:04:44;98948.47;;;8.43;91.01
78643;BME280;67954;47.618;17.606;2023-04-01T02:05:19;98946.09;;;8.40;90.60
78643;BME280;67954;47.618;17.606;2023-04-01T02:05:55;98939.84;;;8.31;91.01
78643;BME280;67954;47.618;17.606;2023-04-01T02:06:31;98943.72;;;8.29;91.18
78643;BME280;67954;47.618;17.606;2023-04-01T02:07:08;98937.69;;;8.27;91.19
78643;BME280;67954;47.618;17.606;2023-04-01T02:07:45;98940.06;;;8.30;91.80
78643;BME280;67954;47.618;17.606;2023-04-01T02:08:22;98945.72;;;8.27;92.02
78643;BME280;67954;47.618;17.606;2023-04-01T02:08:57;98940.03;;;8.21;91.83
78643;BME280;67954;47.618;17.606;2023-04-01T02:09:31;98936.19;;;8.24;91.89
78643;BME280;67954;47.618;17.606;2023-04-01T02:10:05;98938.38;;;8.29;91.44
78643;BME280;67954;47.618;17.606;2023-04-01T02:10:40;98936.69;;;8.28;91.70
78643;BME280;67954;47.618;17.606;2023-04-01T02:11:15;98937.88;;;8.25;91.50
78643;BME280;67954;47.618;17.606;2023-04-01T02:11:52;98935.03;;;8.27;91.37
78643;BME280;67954;47.618;17.606;2023-04-01T02:12:23;98936.81;;;8.18;91.54
78643;BME280;67954;47.618;17.606;2023-04-01T02:13:00;98932.84;;;8.14;92.10
78643;BME280;67954;47.618;17.606;2023-04-01T02:13:37;98933.16;;;8.19;91.58
78643;BME280;67954;47.618;17.606;2023-04-01T02:14:13;98932.84;;;8.22;91.76
78643;BME280;67954;47.618;17.606;2023-04-01T02:14:52;98933.19;;;8.27;91.38
78643;BME280;67954;47.618;17.606;2023-04-01T02:15:26;98934.38;;;8.33;91.59
78643;BME280;67954;47.618;17.606;2023-04-01T02:16:06;98926.47;;;8.31;91.57
78643;BME280;67954;47.618;17.606;2023-04-01T02:16:47;98926.34;;;8.33;91.08
78643;BME280;67954;47.618;17.606;2023-04-01T02:17:22;98929.69;;;8.27;91.29
78643;BME280;67954;47.618;17.606;2023-04-01T02:17:54;98928.16;;;8.16;91.67
78643;BME280;67954;47.618;17.606;2023-04-01T02:18:28;98923.28;;;8.11;92.06
78643;BME280;67954;47.618;17.606;2023-04-01T02:19:02;98929.63;;;8.10;92.36
78643;BME280;67954;47.618;17.606;2023-04-01T02:19:40;98927.31;;;8.15;91.65
78643;BME280;67954;47.618;17.606;2023-04-01T02:20:16;98924.28;;;8.18;91.78
78643;BME280;67954;47.618;17.606;2023-04-01T02:20:49;98923.66;;;8.16;92.05
78643;BME280;67954;47.618;17.606;2023-04-01T02:21:24;98920.78;;;8.18;91.68
78643;BME280;67954;47.618;17.606;2023-04-01T02:22:02;98925.44;;;8.08;92.23
78643;BME280;67954;47.618;17.606;2023-04-01T02:22:38;98917.78;;;8.05;92.58
78643;BME280;67954;47.618;17.606;2023-04-01T02:23:12;98918.94;;;8.10;92.34
78643;BME280;67954;47.618;17.606;2023-04-01T02:23:46;98923.28;;;8.03;91.96
78643;BME280;67954;47.618;17.606;2023-04-01T02:24:18;98920.63;;;8.11;92.40
78643;BME280;67954;47.618;17.606;2023-04-01T02:24:59;98918.78;;;8.04;92.10
78643;BME280;67954;47.618;17.606;2023-04-01T02:25:35;98926.81;;;8.12;92.38
78643;BME280;67954;47.618;17.606;2023-04-01T02:26:09;98922.81;;;8.16;92.10
78643;BME280;67954;47.618;17.606;2023-04-01T02:26:44;98924.13;;;8.20;91.52
78643;BME280;67954;47.618;17.606;2023-04-01T02:27:16;98916.47;;;8.17;91.14
78643;BME280;67954;47.618;17.606;2023-04-01T02:27:47;98918.63;;;8.13;91.61
78643;BME280;67954;47.618;17.606;2023-04-01T02:28:20;98916.94;;;8.12;91.75
78643;BME280;67954;47.618;17.606;2023-04-01T02:28:53;98920.28;;;8.14;92.12
78643;BME280;67954;47.618;17.606;2023-04-01T02:29:25;98917.09;;;8.19;92.16
78643;BME280;67954;47.618;17.606;2023-04-01T02:29:57;98923.81;;;8.23;91.92
78643;BME280;67954;47.618;17.606;2023-04-01T02:30:31;98919.78;;;8.19;91.94
78643;BME280;67954;47.618;17.606;2023-04-01T02:31:04;98915.44;;;8.18;92.14
78643;BME280;67954;47.618;17.606;2023-04-01T02:31:36;98913.94;;;8.15;91.86
78643;BME280;67954;47.618;17.606;2023-04-01T02:32:08;98907.75;;;8.15;92.14
78643;BME280;67954;47.618;17.606;2023-04-01T02:32:41;98904.72;;;8.18;91.77
78643;BME280;67954;47.618;17.606;2023-04-01T02:33:13;98902.56;;;8.13;91.90
78643;BME280;67954;47.618;17.606;2023-04-01T02:33:46;98909.91;;;8.11;91.51
78643;BME280;67954;47.618;17.606;2023-04-01T02:34:18;98903.88;;;8.01;91.81
78643;BME280;67954;47.618;17.606;2023-04-01T02:34:51;98907.34;;;7.94;92.12
78643;BME280;67954;47.618;17.606;2023-04-01T02:35:23;98906.88;;;7.98;91.95
78643;BME280;67954;47.618;17.606;2023-04-01T02:35:54;98912.59;;;8.11;91.79
78643;BME280;67954;47.618;17.606;2023-04-01T02:36:27;98915.94;;;8.21;91.76
78643;BME280;67954;47.618;17.606;2023-04-01T02:36:59;98917.63;;;8.22;91.57
78643;BME280;67954;47.618;17.606;2023-04-01T02:37:30;98917.44;;;8.24;91.18
78643;BME280;67954;47.618;17.606;2023-04-01T02:38:01;98917.81;;;8.29;91.07
78643;BME280;67954;47.618;17.606;2023-04-01T02:38:37;98917.66;;;8.31;90.92
78643;BME280;67954;47.618;17.606;2023-04-01T02:39:09;98917.81;;;8.29;91.21
78643;BME280;67954;47.618;17.606;2023-04-01T02:39:40;98925.31;;;8.25;91.13
78643;BME280;67954;47.618;17.606;2023-04-01T02:40:14;98922.66;;;8.17;91.34
78643;BME280;67954;47.618;17.606;2023-04-01T02:40:47;98923.13;;;8.13;91.78
78643;BME280;67954;47.618;17.606;2023-04-01T02:41:18;98918.78;;;8.20;91.52
78643;BME280;67954;47.618;17.606;2023-04-01T02:41:51;98930.84;;;8.24;91.09
78643;BME280;67954;47.618;17.606;2023-04-01T02:42:22;98930.03;;;8.32;91.21
78643;BME280;67954;47.618;17.606;2023-04-01T02:42:53;98935.03;;;8.27;90.80
78643;BME280;67954;47.618;17.606;2023-04-01T02:43:25;98931.84;;;8.23;90.84
78643;BME280;67954;47.618;17.606;2023-04-01T02:43:56;98926.81;;;8.20;90.82
78643;BME280;67954;47.618;17.606;2023-04-01T02:44:28;98928.31;;;8.22;91.48
78643;BME280;67954;47.618;17.606;2023-04-01T02:45:00;98926.16;;;8.26;90.88
78643;BME280;67954;47.618;17.606;2023-04-01T02:45:31;98930.66;;;8.17;91.51
78643;BME280;67954;47.618;17.606;2023-04-01T02:46:02;98935.50;;;8.14;91.65
78643;BME280;67954;47.618;17.606;2023-04-01T02:46:34;98930.63;;;8.09;91.65
78643;BME280;67954;47.618;17.606;2023-04-01T02:47:05;98926.97;;;8.10;91.47
78643;BME280;67954;47.618;17.606;2023-04-01T02:47:37;98932.50;;;8.17;91.81
78643;BME280;67954;47.618;17.606;2023-04-01T02:48:09;98930.31;;;8.12;91.23
78643;BME280;67954;47.618;17.606;2023-04-01T02:48:40;98929.00;;;8.16;91.23
78643;BME280;67954;47.618;17.606;2023-04-01T02:49:11;98924.66;;;8.23;91.51
78643;BME280;67954;47.618;17.606;2023-04-01T02:49:42;98926.31;;;8.24;90.78
78643;BME280;67954;47.618;17.606;2023-04-01T02:50:14;98926.47;;;8.31;90.88
78643;BME280;67954;47.618;17.606;2023-04-01T02:50:45;98916.31;;;8.35;90.45
78643;BME280;67954;47.618;17.606;2023-04-01T02:51:16;98922.84;;;8.32;90.75
78643;BME280;67954;47.618;17.606;2023-04-01T02:51:48;98920.44;;;8.21;90.85
78643;BME280;67954;47.618;17.606;2023-04-01T02:52:20;98920.78;;;8.18;90.89
78643;BME280;67954;47.618;17.606;2023-04-01T02:52:51;98919.63;;;8.20;90.82
78643;BME280;67954;47.618;17.606;2023-04-01T02:53:22;98912.59;;;8.19;90.92
78643;BME280;67954;47.618;17.606;2023-04-01T02:53:54;98917.44;;;8.24;90.74
78643;BME280;67954;47.618;17.606;2023-04-01T02:54:25;98919.28;;;8.15;90.85
78643;BME280;67954;47.618;17.606;2023-04-01T02:54:56;98922.13;;;8.14;91.34
78643;BME280;67954;47.618;17.606;2023-04-01T02:55:28;98920.78;;;8.18;91.62
78643;BME280;67954;47.618;17.606;2023-04-01T02:56:00;98917.94;;;8.19;91.01
78643;BME280;67954;47.618;17.606;2023-04-01T02:56:31;98921.13;;;8.15;91.06
78643;BME280;67954;47.618;17.606;2023-04-01T02:57:03;98916.25;;;8.18;91.22
78643;BME280;67954;47.618;17.606;2023-04-01T02:57:53;98918.78;;;8.12;91.73
78643;BME280;67954;47.618;17.606;2023-04-01T02:58:24;98913.44;;;8.12;91.20
78643;BME280;67954;47.618;17.606;2023-04-01T02:58:56;98909.06;;;8.11;91.67
78643;BME280;67954;47.618;17.606;2023-04-01T02:59:27;98917.94;;;8.19;91.42
78643;BME280;67954;47.618;17.606;2023-04-01T02:59:58;98916.94;;;8.12;91.25
78643;BME280;67954;47.618;17.606;2023-04-01T03:00:30;98914.63;;;8.17;90.99
78643;BME280;67954;47.618;17.606;2023-04-01T03:01:01;98918.63;;;8.21;90.67
78643;BME280;67954;47.618;17.606;2023-04-01T03:01:32;98913.25;;;8.21;90.54
78643;BME280;67954;47.618;17.606;2023-04-01T03:02:04;98911.94;;;8.25;90.42
78643;BME280;67954;47.618;17.606;2023-04-01T03:02:35;98914.28;;;8.29;90.73
78643;BME280;67954;47.618;17.606;2023-04-01T03:03:06;98909.25;;;8.25;89.94
78643;BME280;67954;47.618;17.606;2023-04-01T03:03:39;98908.91;;;8.20;90.28
78643;BME280;67954;47.618;17.606;2023-04-01T03:04:10;98907.75;;;8.23;90.57
78643;BME280;67954;47.618;17.606;2023-04-01T03:04:41;98913.44;;;8.20;90.36
78643;BME280;67954;47.618;17.606;2023-04-01T03:05:12;98904.59;;;8.28;90.32
78643;BME280;67954;47.618;17.606;2023-04-01T03:05:44;98914.63;;;8.17;90.34
78643;BME280;67954;47.618;17.606;2023-04-01T03:06:34;98908.25;;;8.18;90.40
78643;BME280;67954;47.618;17.606;2023-04-01T03:07:06;98899.56;;;8.24;90.76
78643;BME280;67954;47.618;17.606;2023-04-01T03:07:39;98898.72;;;8.24;90.05
78643;BME280;67954;47.618;17.606;2023-04-01T03:08:28;98902.41;;;8.23;90.59
78643;BME280;67954;47.618;17.606;2023-04-01T03:09:00;98902.06;;;8.26;90.29